Time;durP1;ratioP1;P1;durP2;ratioP2;P2;SDS_P1;SDS_P2;PMS_P1;PMS_P2;Temp;Humidity;BMP_temperature;BMP_pressure;BME280_temperature;BME280_humidity;BME280_pressure;Samples;Min_cycle;Max_cycle;Signal;HPM_P1;HPM_P2
2023/04/21 00:00:07;;;;;;;26.45;13.27;;;6.30;1.00;;;;;;4999389;28;20429;-53
2023/04/21 00:02:38;;;;;;;27.58;13.32;;;6.40;1.00;;;;;;4997412;28;20754;-52
2023/04/21 00:05:12;;;;;;;25.15;13.85;;;6.30;1.00;;;;;;4997270;28;20393;-57
2023/04/21 00:07:39;;;;;;;23.88;13.15;;;6.30;1.00;;;;;;4995506;28;20393;-51
2023/04/21 00:10:08;;;;;;;28.85;13.10;;;6.30;1.00;;;;;;4998040;28;20410;-51
2023/04/21 00:12:34;;;;;;;23.10;12.63;;;6.20;1.00;;;;;;4996229;28;20393;-50
2023/04/21 00:15:00;;;;;;;25.50;12.88;;;6.20;1.00;;;;;;5001428;28;20464;-51
2023/04/21 00:17:26;;;;;;;24.70;12.20;;;6.30;1.00;;;;;;4999644;28;20392;-51
2023/04/21 00:19:52;;;;;;;25.40;12.27;;;6.30;1.00;;;;;;5000271;28;20410;-51
2023/04/21 00:22:17;;;;;;;26.30;12.90;;;8.40;1.00;;;;;;5001285;28;20415;-51
2023/04/21 00:24:43;;;;;;;25.20;12.98;;;6.40;1.00;;;;;;5001696;28;20697;-51
2023/04/21 00:27:10;;;;;;;25.13;12.98;;;6.30;1.00;;;;;;5000365;28;20727;-52
2023/04/21 00:29:35;;;;;;;26.02;13.07;;;6.30;1.00;;;;;;5000392;28;20842;-51
2023/04/21 00:32:02;;;;;;;23.70;12.70;;;6.30;1.00;;;;;;4999948;28;20416;-52
2023/04/21 00:34:28;;;;;;;27.30;13.23;;;6.30;1.00;;;;;;4998808;28;20879;-51
2023/04/21 00:36:54;;;;;;;25.00;13.40;;;6.30;1.00;;;;;;5001861;28;20459;-51
2023/04/21 00:39:19;;;;;;;27.88;12.93;;;6.30;1.00;;;;;;4998269;28;20436;-51
2023/04/21 00:41:45;;;;;;;24.47;11.30;;;6.60;1.00;;;;;;5000683;28;20849;-51
2023/04/21 00:44:11;;;;;;;30.05;12.70;;;6.30;1.00;;;;;;4999528;28;20857;-51
2023/04/21 00:46:37;;;;;;;26.37;13.47;;;6.50;1.00;;;;;;4999232;28;20864;-52
2023/04/21 00:49:05;;;;;;;24.50;12.73;;;6.30;1.00;;;;;;5001118;28;20414;-52
2023/04/21 00:51:33;;;;;;;26.98;12.75;;;6.30;1.00;;;;;;4999000;28;20390;-52
2023/04/21 00:54:01;;;;;;;22.05;10.73;;;6.70;1.00;;;;;;4999091;28;20812;-52
2023/04/21 00:56:29;;;;;;;24.10;11.73;;;6.20;1.00;;;;;;5000594;28;20401;-52
2023/04/21 00:58:57;;;;;;;25.38;11.90;;;7.00;1.00;;;;;;4999711;28;20490;-52
2023/04/21 01:01:23;;;;;;;23.38;11.85;;;6.10;1.00;;;;;;4999516;28;20442;-51
2023/04/21 01:03:49;;;;;;;24.70;12.13;;;6.10;1.00;;;;;;4999046;28;20510;-51
2023/04/21 01:06:15;;;;;;;25.08;12.27;;;6.00;1.00;;;;;;5000887;28;20410;-51
2023/04/21 01:08:41;;;;;;;20.50;10.05;;;6.00;1.00;;;;;;5000948;28;20447;-51
2023/04/21 01:11:10;;;;;;;23.90;11.55;;;7.10;1.00;;;;;;5000645;28;20845;-51
2023/04/21 01:13:37;;;;;;;28.35;12.75;;;5.90;1.00;;;;;;4998414;28;21100;-51
2023/04/21 01:16:02;;;;;;;24.38;10.93;;;5.90;1.00;;;;;;5000411;28;20489;-51
2023/04/21 01:18:29;;;;;;;24.37;11.83;;;5.90;1.00;;;;;;4997046;28;20484;-49
2023/04/21 01:20:54;;;;;;;23.67;11.07;;;6.00;1.00;;;;;;4998947;28;20410;-49
2023/04/21 01:23:20;;;;;;;25.03;12.70;;;7.80;1.00;;;;;;5000780;28;20409;-49
2023/04/21 01:25:46;;;;;;;25.63;10.38;;;7.20;1.00;;;;;;4998584;28;20485;-49
2023/04/21 01:28:12;;;;;;;26.50;12.27;;;5.90;1.00;;;;;;5000538;28;20410;-49
2023/04/21 01:30:37;;;;;;;26.05;12.63;;;5.90;1.00;;;;;;5000012;28;20574;-49
2023/04/21 01:33:03;;;;;;;25.40;11.63;;;6.90;1.00;;;;;;5000616;28;20403;-50
2023/04/21 01:35:29;;;;;;;24.38;11.35;;;5.90;1.00;;;;;;4999497;28;20396;-49
2023/04/21 01:37:54;;;;;;;22.50;11.87;;;5.90;1.00;;;;;;4998137;28;20814;-49
2023/04/21 01:40:20;;;;;;;25.45;12.27;;;5.90;1.00;;;;;;4998399;28;20422;-49
2023/04/21 01:42:46;;;;;;;24.03;11.10;;;7.20;1.00;;;;;;4999067;28;20749;-49
2023/04/21 01:45:11;;;;;;;23.85;11.50;;;6.00;1.00;;;;;;4997602;28;21000;-49
2023/04/21 01:47:37;;;;;;;22.40;11.35;;;6.70;1.00;;;;;;4997984;28;20394;-49
2023/04/21 01:50:03;;;;;;;24.73;11.97;;;7.40;1.00;;;;;;5000932;28;20400;-49
2023/04/21 01:52:29;;;;;;;25.98;12.52;;;5.90;1.00;;;;;;4999098;28;20489;-49
2023/04/21 01:54:54;;;;;;;24.42;11.70;;;5.80;1.00;;;;;;4999608;28;20471;-49
2023/04/21 01:57:20;;;;;;;23.43;11.60;;;5.80;1.00;;;;;;4999398;28;20475;-49
2023/04/21 01:59:46;;;;;;;19.88;10.77;;;6.90;1.00;;;;;;4997323;28;20926;-49
2023/04/21 02:02:11;;;;;;;22.88;10.85;;;5.70;1.00;;;;;;4998115;28;20884;-49
2023/04/21 02:04:37;;;;;;;28.07;11.80;;;5.70;1.00;;;;;;4999325;28;20391;-50
2023/04/21 02:07:02;;;;;;;23.85;11.50;;;5.70;1.00;;;;;;4998093;28;20416;-49
2023/04/21 02:09:28;;;;;;;24.40;11.27;;;6.10;1.00;;;;;;4996962;28;20437;-50
2023/04/21 02:11:55;;;;;;;25.52;11.77;;;5.60;1.00;;;;;;4999348;28;20401;-49
2023/04/21 02:14:21;;;;;;;23.63;10.98;;;5.60;1.00;;;;;;4997155;28;20459;-49
2023/04/21 02:16:47;;;;;;;23.40;10.63;;;5.60;1.00;;;;;;4998747;28;20411;-49
2023/04/21 02:19:13;;;;;;;26.08;11.35;;;5.60;1.00;;;;;;4997881;28;20878;-49
2023/04/21 02:21:38;;;;;;;25.03;10.80;;;5.60;1.00;;;;;;4996505;28;20395;-49
2023/04/21 02:24:04;;;;;;;26.02;11.93;;;5.60;1.00;;;;;;4999183;28;20433;-49
2023/04/21 02:26:30;;;;;;;27.10;11.50;;;5.60;1.00;;;;;;4998152;28;20425;-49
2023/04/21 02:28:56;;;;;;;25.27;11.93;;;7.20;1.00;;;;;;4996405;28;20407;-49
2023/04/21 02:31:22;;;;;;;22.58;11.15;;;5.60;1.00;;;;;;4998325;28;21009;-50
2023/04/21 02:33:48;;;;;;;24.50;11.30;;;5.80;1.00;;;;;;4996677;28;20480;-50
2023/04/21 02:36:13;;;;;;;21.88;11.13;;;5.50;1.00;;;;;;4999116;28;20869;-50
2023/04/21 02:38:39;;;;;;;21.40;10.87;;;5.50;1.00;;;;;;4997232;28;20594;-50
2023/04/21 02:41:04;;;;;;;21.85;10.48;;;5.40;1.00;;;;;;4999050;28;20893;-50
2023/04/21 02:43:30;;;;;;;21.57;10.20;;;5.40;1.00;;;;;;4998566;28;20415;-49
2023/04/21 02:45:56;;;;;;;21.80;9.88;;;5.50;1.00;;;;;;4997294;28;20468;-50
2023/04/21 02:48:25;;;;;;;23.30;10.80;;;5.10;1.00;;;;;;4996158;28;20874;-49
2023/04/21 02:50:54;;;;;;;23.30;10.52;;;5.00;1.00;;;;;;4999174;28;20410;-49
2023/04/21 02:53:20;;;;;;;25.15;11.70;;;5.90;1.00;;;;;;4996056;28;20415;-49
2023/04/21 02:55:46;;;;;;;22.40;10.70;;;5.30;1.00;;;;;;4995887;28;20867;-49
2023/04/21 02:58:12;;;;;;;20.38;10.82;;;5.40;1.00;;;;;;4997602;28;20803;-50
2023/04/21 03:00:37;;;;;;;24.90;11.57;;;5.40;1.00;;;;;;4999297;28;20554;-50
2023/04/21 03:03:03;;;;;;;21.67;10.38;;;5.70;1.00;;;;;;4998981;28;20484;-50
2023/04/21 03:05:29;;;;;;;22.50;10.67;;;5.20;1.00;;;;;;4996165;28;20382;-49
2023/04/21 03:07:54;;;;;;;26.80;11.67;;;5.10;1.00;;;;;;4998864;28;20807;-50
2023/04/21 03:10:20;;;;;;;25.42;12.30;;;5.80;1.00;;;;;;5000483;28;20402;-50
2023/04/21 03:12:46;;;;;;;21.40;11.37;;;6.00;1.00;;;;;;4999449;28;20384;-50
2023/04/21 03:15:13;;;;;;;21.95;10.82;;;7.00;1.00;;;;;;4995460;28;20752;-51
2023/04/21 03:17:39;;;;;;;22.65;10.75;;;7.50;1.00;;;;;;4997522;28;20964;-51
2023/04/21 03:20:07;;;;;;;23.20;10.43;;;5.20;1.00;;;;;;4998594;28;21223;-51
2023/04/21 03:22:34;;;;;;;24.55;11.23;;;5.20;1.00;;;;;;4996129;28;20406;-50
2023/04/21 03:25:00;;;;;;;22.50;10.50;;;6.80;1.00;;;;;;4997632;28;20500;-51
2023/04/21 03:27:25;;;;;;;19.90;10.00;;;5.80;1.00;;;;;;4995749;28;20742;-50
2023/04/21 03:29:51;;;;;;;22.08;10.25;;;6.70;1.00;;;;;;4998793;28;20396;-50
2023/04/21 03:32:16;;;;;;;21.87;10.20;;;6.60;1.00;;;;;;4993406;28;20744;-50
2023/04/21 03:34:42;;;;;;;18.42;9.75;;;5.70;1.00;;;;;;4993922;28;21208;-50
2023/04/21 03:37:08;;;;;;;22.10;10.20;;;5.20;1.00;;;;;;5007640;28;20743;-50
2023/04/21 03:39:33;;;;;;;19.57;10.07;;;5.20;1.00;;;;;;4989906;28;20906;-50
2023/04/21 03:42:00;;;;;;;19.73;9.05;;;6.50;1.00;;;;;;5001354;28;20407;-50
2023/04/21 03:44:27;;;;;;;23.65;10.45;;;5.00;1.00;;;;;;5006751;28;20512;-50
2023/04/21 03:46:53;;;;;;;34.97;9.18;;;4.90;1.00;;;;;;4988098;28;20402;-50
2023/04/21 03:49:19;;;;;;;23.50;9.13;;;4.70;1.00;;;;;;5000621;28;20407;-50
2023/04/21 03:51:45;;;;;;;31.43;8.33;;;4.60;1.00;;;;;;5006717;28;20384;-50
2023/04/21 03:54:11;;;;;;;19.80;8.23;;;4.50;1.00;;;;;;5002472;28;20783;-50
2023/04/21 03:56:37;;;;;;;23.35;8.25;;;4.20;1.00;;;;;;5000559;28;20561;-50
2023/04/21 03:59:03;;;;;;;37.77;9.57;;;4.20;1.00;;;;;;5001775;28;20487;-51
2023/04/21 04:01:28;;;;;;;17.55;7.93;;;4.20;1.00;;;;;;5002089;28;20452;-50
2023/04/21 04:03:54;;;;;;;24.00;9.68;;;4.30;1.00;;;;;;5001890;28;20414;-50
2023/04/21 04:06:20;;;;;;;20.20;9.40;;;5.30;1.00;;;;;;5002182;28;20476;-50
2023/04/21 04:08:45;;;;;;;19.10;8.75;;;5.30;1.00;;;;;;4999621;28;20493;-50
2023/04/21 04:11:11;;;;;;;23.50;9.00;;;6.20;1.00;;;;;;5002444;28;20633;-64
2023/04/21 04:13:37;;;;;;;23.73;9.47;;;5.70;1.00;;;;;;5000068;28;20396;-62
2023/04/21 04:16:02;;;;;;;18.50;8.70;;;4.60;1.00;;;;;;5008056;28;20401;-61
2023/04/21 04:18:28;;;;;;;19.87;8.87;;;4.70;1.00;;;;;;4999925;28;20739;-62
2023/04/21 04:20:53;;;;;;;39.63;9.88;;;4.70;1.00;;;;;;5004858;28;20420;-63
2023/04/21 04:23:19;;;;;;;27.60;9.27;;;4.70;1.00;;;;;;5004772;28;20401;-51
2023/04/21 04:25:46;;;;;;;21.23;9.67;;;4.70;1.00;;;;;;5008880;28;20765;-51
2023/04/21 04:28:12;;;;;;;21.92;9.55;;;4.70;1.00;;;;;;5008590;28;20401;-51
2023/04/21 04:30:38;;;;;;;21.35;10.05;;;6.90;1.00;;;;;;5003242;28;20957;-51
2023/04/21 04:33:03;;;;;;;24.55;11.18;;;4.80;1.00;;;;;;5010172;28;20409;-51
2023/04/21 04:35:29;;;;;;;24.83;9.80;;;5.70;1.00;;;;;;5006697;28;21164;-50
2023/04/21 04:37:55;;;;;;;22.35;9.85;;;4.70;1.00;;;;;;5001780;28;20435;-50
2023/04/21 04:40:21;;;;;;;20.88;7.95;;;4.60;1.00;;;;;;5010023;28;20425;-51
2023/04/21 04:42:47;;;;;;;22.98;9.73;;;4.50;1.00;;;;;;5000092;28;20460;-50
2023/04/21 04:45:15;;;;;;;23.15;9.77;;;4.40;1.00;;;;;;5005977;28;20430;-51
2023/04/21 04:47:41;;;;;;;21.08;9.52;;;4.50;1.00;;;;;;5020789;28;20464;-50
2023/04/21 04:50:07;;;;;;;19.25;9.32;;;4.60;1.00;;;;;;5008592;28;20396;-51
2023/04/21 04:52:32;;;;;;;18.07;9.33;;;4.70;1.00;;;;;;5027261;28;20428;-51
2023/04/21 04:54:58;;;;;;;18.80;9.50;;;6.70;1.00;;;;;;5024827;28;20788;-50
2023/04/21 04:57:24;;;;;;;19.10;10.52;;;4.60;1.00;;;;;;5028026;28;20442;-50
2023/04/21 04:59:56;;;;;;;19.77;10.23;;;4.70;1.00;;;;;;5010606;28;20433;-50
2023/04/21 05:02:22;;;;;;;21.38;9.32;;;4.80;1.00;;;;;;4999844;28;20392;-50
2023/04/21 05:04:49;;;;;;;27.80;9.77;;;4.90;1.00;;;;;;4998638;28;20413;-51
2023/04/21 05:07:15;;;;;;;27.80;8.35;;;5.00;1.00;;;;;;5002129;28;20485;-51
2023/04/21 05:09:40;;;;;;;30.33;9.50;;;4.90;1.00;;;;;;5006631;28;20480;-51
2023/04/21 05:12:06;;;;;;;25.13;8.57;;;4.90;1.00;;;;;;5002682;28;20481;-50
2023/04/21 05:14:32;;;;;;;22.40;8.93;;;4.90;1.00;;;;;;4993354;28;20393;-51
2023/04/21 05:16:57;;;;;;;18.37;9.10;;;5.00;1.00;;;;;;5006164;28;20490;-51
2023/04/21 05:19:23;;;;;;;17.92;8.75;;;5.00;1.00;;;;;;4999247;28;20503;-51
2023/04/21 05:21:49;;;;;;;19.60;8.80;;;5.10;1.00;;;;;;5003183;28;20405;-51
2023/04/21 05:24:15;;;;;;;19.38;8.73;;;5.20;1.00;;;;;;5005455;28;20405;-50
2023/04/21 05:26:40;;;;;;;17.40;7.85;;;5.20;1.00;;;;;;5010240;28;20488;-51
2023/04/21 05:29:06;;;;;;;21.80;9.50;;;5.30;1.00;;;;;;4998115;28;20425;-51
2023/04/21 05:31:32;;;;;;;17.40;8.33;;;5.50;1.00;;;;;;4989573;28;20784;-51
2023/04/21 05:33:58;;;;;;;21.35;8.35;;;5.60;1.00;;;;;;4990965;28;20401;-51
2023/04/21 05:36:26;;;;;;;18.55;9.02;;;7.60;1.00;;;;;;4989986;28;20398;-51
2023/04/21 05:38:52;;;;;;;20.10;9.50;;;5.70;1.00;;;;;;5001172;28;20465;-51
2023/04/21 05:41:18;;;;;;;22.05;10.15;;;6.20;1.00;;;;;;5010180;28;20570;-50
2023/04/21 05:43:44;;;;;;;21.63;10.60;;;5.60;1.00;;;;;;5003311;28;20567;-52
2023/04/21 05:46:09;;;;;;;23.50;11.37;;;5.70;1.00;;;;;;5029437;28;20379;-51
2023/04/21 05:48:35;;;;;;;26.00;11.70;;;5.90;1.00;;;;;;5029106;28;20490;-50
2023/04/21 05:51:12;;;;;;;25.13;11.05;;;6.00;1.00;;;;;;5029907;28;20394;-51
2023/04/21 05:53:40;;;;;;;24.55;10.35;;;6.00;1.00;;;;;;5028884;28;20383;-51
2023/04/21 05:56:08;;;;;;;23.73;10.20;;;6.30;1.00;;;;;;5029661;28;20395;-51
2023/04/21 05:58:33;;;;;;;23.00;11.05;;;6.30;1.00;;;;;;5029014;28;20395;-51
2023/04/21 06:00:59;;;;;;;25.63;11.85;;;7.50;1.00;;;;;;5029574;28;20419;-51
2023/04/21 06:03:25;;;;;;;29.47;12.80;;;7.70;1.00;;;;;;5025426;28;20490;-51
2023/04/21 06:05:54;;;;;;;25.93;11.90;;;6.20;1.00;;;;;;5016461;28;20891;-51
2023/04/21 06:08:21;;;;;;;26.45;11.73;;;6.20;1.00;;;;;;5022393;28;20410;-51
2023/04/21 06:10:47;;;;;;;26.65;11.95;;;6.30;1.00;;;;;;5013330;28;20436;-51
2023/04/21 06:13:13;;;;;;;25.70;12.15;;;6.30;1.00;;;;;;5008744;28;20839;-51
2023/04/21 06:15:38;;;;;;;26.27;12.55;;;6.30;1.00;;;;;;5028341;28;20478;-51
2023/04/21 06:18:04;;;;;;;26.33;11.93;;;6.50;1.00;;;;;;5029130;28;20391;-51
2023/04/21 06:20:29;;;;;;;27.25;12.15;;;6.60;1.00;;;;;;5027873;28;20415;-51
2023/04/21 06:22:55;;;;;;;24.53;11.80;;;7.60;1.00;;;;;;5019362;28;20454;-52
2023/04/21 06:25:21;;;;;;;26.90;12.30;;;7.30;1.00;;;;;;5009225;28;20389;-52
2023/04/21 06:27:46;;;;;;;28.03;12.90;;;7.60;1.00;;;;;;5008278;28;20380;-51
2023/04/21 06:30:13;;;;;;;27.15;13.30;;;8.00;1.00;;;;;;5008986;28;20818;-51
2023/04/21 06:32:38;;;;;;;24.88;12.02;;;8.20;99.90;;;;;;5008951;28;20381;-51
2023/04/21 06:35:04;;;;;;;23.30;11.10;;;8.30;99.90;;;;;;5009288;28;20876;-51
2023/04/21 06:37:30;;;;;;;23.88;11.68;;;8.30;99.90;;;;;;5008444;28;20437;-51
2023/04/21 06:39:56;;;;;;;22.87;11.40;;;8.50;99.90;;;;;;5018208;28;20788;-51
2023/04/21 06:42:22;;;;;;;24.52;12.02;;;8.80;99.90;;;;;;5028833;28;20832;-51
2023/04/21 06:44:47;;;;;;;23.00;10.93;;;9.80;1.00;;;;;;5028680;28;20390;-51
2023/04/21 06:47:15;;;;;;;22.92;11.25;;;10.30;96.10;;;;;;5029257;28;20838;-52
2023/04/21 06:49:41;;;;;;;22.27;10.43;;;10.60;99.90;;;;;;5028231;28;20383;-52
2023/04/21 06:52:06;;;;;;;21.80;10.57;;;11.10;1.00;;;;;;5028830;28;20470;-51
2023/04/21 06:54:32;;;;;;;20.17;10.50;;;11.40;1.00;;;;;;5028157;28;20380;-51
2023/04/21 06:56:58;;;;;;;22.90;10.80;;;11.60;1.00;;;;;;5028521;28;20394;-53
2023/04/21 06:59:23;;;;;;;21.80;9.90;;;11.70;99.90;;;;;;5028246;28;20418;-51
2023/04/21 07:01:51;;;;;;;21.20;9.83;;;11.60;99.90;;;;;;5028501;28;20383;-51
2023/04/21 07:04:17;;;;;;;23.40;10.60;;;11.60;99.90;;;;;;5028683;28;20392;-51
2023/04/21 07:06:42;;;;;;;24.00;11.68;;;11.70;99.90;;;;;;5027820;28;20510;-51
2023/04/21 07:09:08;;;;;;;22.07;11.40;;;11.80;99.90;;;;;;5028628;28;20494;-51
2023/04/21 07:11:34;;;;;;;20.42;10.20;;;11.90;99.90;;;;;;5026270;28;20729;-51
2023/04/21 07:14:01;;;;;;;23.53;10.10;;;11.60;99.90;;;;;;5019742;28;20396;-51
2023/04/21 07:16:27;;;;;;;21.98;11.00;;;12.00;99.90;;;;;;5008198;28;20389;-51
2023/04/21 07:18:53;;;;;;;19.80;10.50;;;12.80;99.90;;;;;;5008820;28;20399;-51
2023/04/21 07:21:19;;;;;;;21.60;10.77;;;13.40;28.80;;;;;;5008366;28;20730;-52
2023/04/21 07:23:44;;;;;;;23.25;10.75;;;14.00;1.00;;;;;;5007920;28;20399;-52
2023/04/21 07:26:10;;;;;;;21.67;10.40;;;14.50;1.00;;;;;;5008478;28;20420;-51
2023/04/21 07:28:37;;;;;;;21.30;10.40;;;14.40;1.00;;;;;;5007879;28;20423;-52
2023/04/21 07:31:03;;;;;;;20.88;10.23;;;13.90;1.00;;;;;;5009053;28;20889;-51
2023/04/21 07:33:28;;;;;;;20.98;11.38;;;13.70;1.00;;;;;;5007601;28;20395;-52
2023/04/21 07:35:54;;;;;;;19.50;10.30;;;13.50;1.00;;;;;;5009170;28;20390;-52
2023/04/21 07:38:20;;;;;;;19.90;9.80;;;13.40;1.00;;;;;;5006918;28;20910;-52
2023/04/21 07:40:46;;;;;;;19.30;9.93;;;14.00;1.00;;;;;;5007791;28;20420;-51
2023/04/21 07:43:11;;;;;;;18.53;8.93;;;14.30;1.00;;;;;;5007100;28;20377;-52
2023/04/21 07:45:37;;;;;;;17.70;9.10;;;14.90;1.00;;;;;;5008064;28;20443;-52
2023/04/21 07:48:04;;;;;;;19.63;9.47;;;14.60;1.00;;;;;;5008477;28;20455;-52
2023/04/21 07:50:30;;;;;;;19.83;9.80;;;14.80;1.00;;;;;;5008133;28;20392;-52
2023/04/21 07:52:56;;;;;;;17.95;9.00;;;14.80;1.00;;;;;;5008383;28;20397;-52
2023/04/21 07:55:21;;;;;;;19.10;9.05;;;15.30;1.00;;;;;;5007078;28;20410;-52
2023/04/21 07:57:47;;;;;;;18.57;9.10;;;16.20;1.00;;;;;;5007481;28;20408;-53
2023/04/21 08:00:14;;;;;;;16.63;8.55;;;16.50;1.00;;;;;;5008588;28;20413;-53
2023/04/21 08:02:40;;;;;;;15.82;8.27;;;16.50;99.90;;;;;;5007735;28;20807;-52
2023/04/21 08:05:06;;;;;;;18.10;9.20;;;17.00;99.90;;;;;;5008575;28;20447;-52
2023/04/21 08:07:32;;;;;;;16.90;8.37;;;17.20;99.90;;;;;;5007279;28;20475;-52
2023/04/21 08:09:59;;;;;;;15.55;8.30;;;17.40;99.90;;;;;;5008319;28;20925;-53
2023/04/21 08:12:25;;;;;;;14.05;7.80;;;17.80;99.90;;;;;;5007764;28;20381;-52
2023/04/21 08:14:50;;;;;;;15.27;9.55;;;19.50;99.90;;;;;;5024191;28;20394;-52
2023/04/21 08:17:16;;;;;;;18.77;13.15;;;19.50;99.90;;;;;;5026820;28;20848;-52
2023/04/21 08:19:42;;;;;;;15.55;12.25;;;19.20;99.90;;;;;;5027201;28;20525;-52
2023/04/21 08:22:07;;;;;;;15.10;8.13;;;18.80;99.90;;;;;;5027910;28;20952;-53
2023/04/21 08:24:33;;;;;;;16.45;9.10;;;20.10;99.90;;;;;;5027105;28;20885;-53
2023/04/21 08:27:01;;;;;;;15.73;10.95;;;20.20;99.90;;;;;;5027923;28;20380;-53
2023/04/21 08:29:26;;;;;;;17.75;15.82;;;20.30;99.90;;;;;;5027631;28;20849;-53
2023/04/21 08:31:52;;;;;;;17.92;16.02;;;20.10;99.90;;;;;;5027393;28;20558;-53
2023/04/21 08:34:18;;;;;;;16.37;13.97;;;19.80;99.90;;;;;;5027928;28;20367;-53
2023/04/21 08:36:45;;;;;;;17.80;16.00;;;19.80;99.90;;;;;;5030172;28;20852;-53
2023/04/21 08:39:12;;;;;;;16.98;15.35;;;21.00;99.90;;;;;;5030725;28;20509;-54
2023/04/21 08:41:41;;;;;;;16.40;14.80;;;21.50;99.90;;;;;;5030550;28;20411;-53
2023/04/21 08:44:12;;;;;;;17.35;15.75;;;22.10;99.90;;;;;;5031629;28;20383;-53
2023/04/21 08:46:39;;;;;;;15.10;13.60;;;22.90;99.90;;;;;;5029090;28;20402;-53
2023/04/21 08:49:05;;;;;;;12.77;10.52;;;23.50;99.90;;;;;;5031256;28;20419;-54
2023/04/21 08:51:31;;;;;;;11.48;6.00;;;24.00;99.90;;;;;;5030626;28;20383;-53
2023/04/21 08:53:58;;;;;;;11.02;6.57;;;24.00;99.90;;;;;;5030740;28;20750;-54
2023/04/21 08:56:26;;;;;;;15.55;14.15;;;24.50;99.90;;;;;;5031292;28;20375;-54
2023/04/21 08:58:53;;;;;;;17.77;16.17;;;24.70;99.90;;;;;;5029635;28;20405;-54
2023/04/21 09:01:19;;;;;;;18.10;16.50;;;25.30;99.90;;;;;;5031254;28;20419;-54
2023/04/21 09:03:45;;;;;;;19.05;17.35;;;25.20;99.90;;;;;;5030065;28;20480;-54
2023/04/21 09:06:11;;;;;;;17.10;15.60;;;24.80;99.90;;;;;;5031257;28;20409;-54
2023/04/21 09:08:41;;;;;;;16.38;14.93;;;24.00;99.90;;;;;;5029671;28;20399;-54
2023/04/21 09:11:07;;;;;;;17.00;15.40;;;23.90;99.90;;;;;;5030775;28;20390;-54
2023/04/21 09:13:35;;;;;;;15.73;14.33;;;24.30;99.90;;;;;;5024886;28;20718;-54
2023/04/21 09:16:02;;;;;;;15.73;14.23;;;24.40;99.90;;;;;;5009413;28;20421;-53
2023/04/21 09:18:35;;;;;;;15.48;13.98;;;24.10;99.90;;;;;;5010349;28;20392;-54
2023/04/21 09:21:09;;;;;;;14.70;13.20;;;24.40;99.90;;;;;;5010986;28;20455;-54
2023/04/21 09:23:42;;;;;;;14.80;13.30;;;24.10;99.90;;;;;;5009806;28;20408;-53
2023/04/21 09:26:09;;;;;;;17.70;16.10;;;24.30;99.90;;;;;;5011024;28;20714;-54
2023/04/21 09:28:35;;;;;;;16.67;15.07;;;24.70;99.90;;;;;;5009829;28;20444;-54
2023/04/21 09:31:01;;;;;;;15.20;13.60;;;24.50;99.90;;;;;;5010542;28;20441;-54
2023/04/21 09:33:27;;;;;;;14.80;13.30;;;24.30;99.90;;;;;;5010529;28;20388;-54
2023/04/21 09:35:52;;;;;;;16.48;14.88;;;24.30;99.90;;;;;;5009176;28;20385;-54
2023/04/21 09:38:21;;;;;;;15.77;14.30;;;24.10;99.90;;;;;;5010334;28;20700;-54
2023/04/21 09:40:56;;;;;;;15.68;14.27;;;25.20;99.90;;;;;;5009544;28;20537;-54
2023/04/21 09:43:22;;;;;;;15.00;13.50;;;25.20;99.90;;;;;;5009233;28;20504;-55
2023/04/21 09:45:48;;;;;;;14.68;13.27;;;25.00;99.90;;;;;;5008150;28;20432;-54
2023/04/21 09:48:16;;;;;;;11.95;5.88;;;25.40;99.90;;;;;;5010425;28;20807;-54
2023/04/21 09:50:42;;;;;;;17.75;16.25;;;25.60;99.90;;;;;;5009586;28;20757;-54
2023/04/21 09:53:13;;;;;;;11.75;7.57;;;25.50;99.90;;;;;;4997868;28;20499;-54
2023/04/21 09:55:41;;;;;;;12.50;7.78;;;25.40;99.90;;;;;;5009718;28;20381;-54
2023/04/21 09:58:08;;;;;;;12.35;6.95;;;25.40;99.90;;;;;;4996780;28;20907;-54
2023/04/21 10:00:38;;;;;;;12.65;8.10;;;25.10;99.90;;;;;;4990817;28;20497;-54
2023/04/21 10:03:09;;;;;;;13.88;7.47;;;25.30;99.90;;;;;;5006453;28;20758;-54
2023/04/21 10:05:35;;;;;;;12.25;6.82;;;25.40;99.90;;;;;;5008664;28;20387;-54
2023/04/21 10:08:01;;;;;;;12.15;6.90;;;26.10;99.90;;;;;;5011717;28;20746;-54
2023/04/21 10:10:33;;;;;;;12.98;7.85;;;26.20;99.90;;;;;;5008750;28;20488;-54
2023/04/21 10:12:59;;;;;;;17.17;13.60;;;25.60;99.90;;;;;;5010658;28;20587;-53
2023/04/21 10:15:39;;;;;;;12.90;11.50;;;24.30;99.90;;;;;;5014889;28;20506;-53
2023/04/21 10:18:15;;;;;;;14.30;12.73;;;24.10;99.90;;;;;;4992872;28;20498;-54
2023/04/21 10:21:00;;;;;;;14.07;12.20;;;24.10;99.90;;;;;;5008881;28;20499;-53
2023/04/21 10:23:40;;;;;;;15.70;12.80;;;24.30;99.90;;;;;;5009008;28;20844;-53
2023/04/21 10:26:10;;;;;;;14.55;12.05;;;23.40;99.90;;;;;;4990579;28;20416;-53
2023/04/21 10:28:40;;;;;;;14.70;12.02;;;23.40;99.90;;;;;;4997861;28;20832;-52
2023/04/21 10:31:50;;;;;;;13.85;12.27;;;23.30;99.90;;;;;;5003740;28;20392;-53
2023/04/21 10:34:17;;;;;;;14.43;11.13;;;23.30;99.90;;;;;;5007924;28;20428;-53
2023/04/21 10:36:45;;;;;;;14.68;11.98;;;22.70;99.90;;;;;;4989528;28;20717;-54
2023/04/21 10:39:26;;;;;;;15.13;10.88;;;22.50;99.90;;;;;;4989670;28;20576;-54
2023/04/21 10:41:57;;;;;;;14.75;11.20;;;21.90;99.90;;;;;;4988367;28;20520;-53
2023/04/21 10:44:23;;;;;;;14.57;11.00;;;21.10;99.90;;;;;;4990441;28;20471;-53
2023/04/21 10:46:52;;;;;;;16.27;10.70;;;20.50;99.90;;;;;;5007838;28;20425;-54
2023/04/21 10:49:29;;;;;;;16.30;10.48;;;19.60;99.90;;;;;;5008837;28;20587;-54
2023/04/21 10:52:04;;;;;;;14.73;10.05;;;19.30;99.90;;;;;;5009945;28;20495;-54
2023/04/21 10:54:40;;;;;;;15.70;9.55;;;19.20;99.90;;;;;;5007686;28;20814;-54
2023/04/21 10:57:08;;;;;;;13.20;8.52;;;19.50;99.90;;;;;;4989528;28;20440;-54
2023/04/21 10:59:34;;;;;;;12.70;8.63;;;19.80;99.90;;;;;;5005747;28;20901;-55
2023/04/21 11:02:02;;;;;;;14.98;9.80;;;19.60;99.90;;;;;;5009368;28;20448;-54
2023/04/21 11:04:28;;;;;;;15.45;8.10;;;19.70;99.90;;;;;;5008059;28;20411;-53
2023/04/21 11:07:13;;;;;;;13.02;8.23;;;20.20;99.90;;;;;;5000752;28;20415;-54
2023/04/21 11:09:40;;;;;;;12.55;7.82;;;20.40;99.90;;;;;;4999448;28;20458;-55
2023/04/21 11:12:14;;;;;;;12.13;7.90;;;20.00;99.90;;;;;;4990024;28;20425;-54
2023/04/21 11:14:42;;;;;;;15.20;8.45;;;19.80;99.90;;;;;;5016618;28;20383;-53
2023/04/21 11:17:12;;;;;;;14.18;8.43;;;19.60;99.90;;;;;;5028322;28;20445;-54
2023/04/21 11:19:38;;;;;;;11.45;6.93;;;19.80;99.90;;;;;;4996005;28;20468;-53
2023/04/21 11:22:04;;;;;;;12.07;7.93;;;19.50;99.90;;;;;;5008866;28;20389;-53
2023/04/21 11:24:31;;;;;;;13.25;7.88;;;19.10;99.90;;;;;;5006405;28;20464;-53
2023/04/21 11:26:57;;;;;;;12.93;8.20;;;19.10;99.90;;;;;;5008812;28;20526;-53
2023/04/21 11:29:23;;;;;;;12.73;7.20;;;19.20;99.90;;;;;;5008425;28;20475;-53
2023/04/21 11:31:49;;;;;;;12.63;7.15;;;19.20;99.90;;;;;;5007885;28;20458;-53
2023/04/21 11:34:18;;;;;;;14.25;7.40;;;19.30;99.90;;;;;;5008590;28;20483;-53
2023/04/21 11:36:46;;;;;;;13.85;7.30;;;18.90;99.90;;;;;;5008099;28;20424;-52
2023/04/21 11:39:15;;;;;;;13.60;7.10;;;19.10;99.90;;;;;;5008068;28;20409;-53
2023/04/21 11:41:43;;;;;;;16.07;6.43;;;19.20;99.90;;;;;;5007844;28;20412;-52
2023/04/21 11:44:10;;;;;;;12.70;6.70;;;19.50;99.90;;;;;;5001141;28;20395;-53
2023/04/21 11:46:36;;;;;;;13.38;6.55;;;19.90;99.90;;;;;;4988604;28;20386;-54
2023/04/21 11:49:03;;;;;;;13.30;7.50;;;20.00;99.90;;;;;;4992332;28;20491;-56
2023/04/21 11:51:43;;;;;;;13.68;7.05;;;19.70;99.90;;;;;;5008188;28;20433;-53
2023/04/21 11:54:12;;;;;;;12.60;7.20;;;19.60;99.90;;;;;;5008317;28;20783;-54
2023/04/21 11:56:40;;;;;;;12.43;6.75;;;19.30;99.90;;;;;;4988526;28;20390;-54
2023/04/21 11:59:08;;;;;;;11.23;6.70;;;19.70;99.90;;;;;;4994573;28;20514;-53
2023/04/21 12:01:34;;;;;;;12.40;7.20;;;19.80;99.90;;;;;;5008682;28;20412;-54
2023/04/21 12:04:02;;;;;;;12.45;6.32;;;19.90;99.90;;;;;;5006136;28;20881;-54
2023/04/21 12:06:28;;;;;;;13.20;6.50;;;20.20;99.90;;;;;;4990050;28;20453;-58
2023/04/21 12:08:56;;;;;;;13.10;7.13;;;20.10;99.90;;;;;;5008193;28;20397;-68
2023/04/21 12:11:24;;;;;;;10.98;6.50;;;20.10;99.90;;;;;;5011406;28;20847;-68
2023/04/21 12:13:49;;;;;;;10.88;5.93;;;20.00;99.90;;;;;;5005421;28;20395;-70
2023/04/21 12:16:15;;;;;;;12.37;6.40;;;20.40;99.90;;;;;;5002081;28;20381;-69
2023/04/21 12:18:41;;;;;;;11.50;6.53;;;20.80;99.90;;;;;;5001873;28;20422;-67
2023/04/21 12:21:07;;;;;;;10.82;6.70;;;20.60;99.90;;;;;;5010143;28;20412;-68
2023/04/21 12:23:32;;;;;;;10.93;6.40;;;20.10;99.90;;;;;;5011789;28;20392;-67
2023/04/21 12:25:59;;;;;;;11.18;6.65;;;20.50;99.90;;;;;;5012595;28;20392;-69
2023/04/21 12:28:25;;;;;;;10.70;6.60;;;20.40;99.90;;;;;;5001919;28;20476;-64
2023/04/21 12:30:50;;;;;;;10.30;6.40;;;20.10;99.90;;;;;;5009021;28;20539;-67
2023/04/21 12:33:16;;;;;;;11.33;6.33;;;19.70;99.90;;;;;;5011754;28;20395;-62
2023/04/21 12:35:42;;;;;;;10.90;7.10;;;19.70;99.90;;;;;;5007645;28;20557;-61
2023/04/21 12:38:08;;;;;;;11.80;7.45;;;20.00;99.90;;;;;;4991647;28;20790;-67
2023/04/21 12:40:34;;;;;;;11.23;7.23;;;20.00;99.90;;;;;;5005606;28;20957;-66